createdAt,value
2023-04-05T00:00:55.063Z,0.22
2023-04-05T00:03:24.400Z,0.20
2023-04-05T00:05:54.648Z,0.18
2023-04-05T00:08:26.671Z,0.16
2023-04-05T00:10:54.731Z,0.15
2023-04-05T00:13:22.892Z,0.13
2023-04-05T00:15:51.103Z,0.13
2023-04-05T00:18:23.723Z,0.12
2023-04-05T00:20:53.337Z,0.10
2023-04-05T00:23:22.807Z,0.09
2023-04-05T00:25:50.504Z,0.10
2023-04-05T00:28:18.226Z,0.07
2023-04-05T00:30:46.437Z,0.06
2023-04-05T00:33:14.663Z,0.03
2023-04-05T00:35:42.328Z,0.00
2023-04-05T00:38:11.414Z,-0.02
2023-04-05T00:40:39.263Z,-0.07
2023-04-05T00:43:07.369Z,-0.08
2023-04-05T00:45:35.047Z,-0.12
2023-04-05T00:48:02.719Z,-0.15
2023-04-05T00:50:31.108Z,-0.19
2023-04-05T00:52:59.003Z,-0.21
2023-04-05T00:55:28.324Z,-0.25
2023-04-05T00:57:56.789Z,-0.25
2023-04-05T01:00:24.556Z,-0.28
2023-04-05T01:02:57.701Z,-0.29
2023-04-05T01:05:38.175Z,-0.31
2023-04-05T01:08:17.501Z,-0.31
2023-04-05T01:10:52.425Z,-0.35
2023-04-05T01:13:20.142Z,-0.36
2023-04-05T01:15:48.249Z,-0.37
2023-04-05T01:18:15.916Z,-0.38
2023-04-05T01:20:53.720Z,-0.38
2023-04-05T01:23:39.001Z,-0.39
2023-04-05T01:26:43.475Z,-0.38
2023-04-05T01:29:39.646Z,-0.42
2023-04-05T01:32:16.137Z,-0.46
2023-04-05T01:34:51.415Z,-0.50
2023-04-05T01:37:22.247Z,-0.52
2023-04-05T01:39:51.150Z,-0.53
2023-04-05T01:42:25.061Z,-0.51
2023-04-05T01:44:55.209Z,-0.50
2023-04-05T01:47:22.893Z,-0.48
2023-04-05T01:49:50.931Z,-0.47
2023-04-05T01:52:18.538Z,-0.46
2023-04-05T01:54:46.254Z,-0.43
2023-04-05T01:57:13.893Z,-0.40
2023-04-05T01:59:41.521Z,-0.34
2023-04-05T02:02:10.650Z,-0.33
2023-04-05T02:04:38.717Z,-0.31
2023-04-05T02:07:06.488Z,-0.27
2023-04-05T02:09:34.109Z,-0.26
2023-04-05T02:12:02.011Z,-0.23
2023-04-05T02:14:30.429Z,-0.18
2023-04-05T02:16:58.453Z,-0.15
2023-04-05T02:19:29.826Z,-0.11
2023-04-05T02:21:57.499Z,-0.07
2023-04-05T02:24:25.246Z,-0.02
2023-04-05T02:26:52.847Z,0.02
2023-04-05T02:29:20.439Z,0.08
2023-04-05T02:31:49.906Z,0.14
2023-04-05T02:34:17.628Z,0.19
2023-04-05T02:36:47.260Z,0.23
2023-04-05T02:39:14.861Z,0.27
2023-04-05T02:41:42.613Z,0.30
2023-04-05T02:44:10.251Z,0.34
2023-04-05T02:46:37.848Z,0.36
2023-04-05T02:49:05.629Z,0.37
2023-04-05T02:51:34.361Z,0.40
2023-04-05T02:54:04.699Z,0.45
2023-04-05T02:56:32.375Z,0.50
2023-04-05T02:59:00.009Z,0.51
2023-04-05T03:01:29.187Z,0.55
2023-04-05T03:03:56.932Z,0.59
2023-04-05T03:06:24.561Z,0.62
2023-04-05T03:08:52.405Z,0.65
2023-04-05T03:11:21.321Z,0.67
2023-04-05T03:13:48.930Z,0.66
2023-04-05T03:16:16.689Z,0.71
2023-04-05T03:18:44.375Z,0.73
2023-04-05T03:21:12.534Z,0.75
2023-04-05T03:23:40.198Z,0.80
2023-04-05T03:26:07.841Z,0.83
2023-04-05T03:28:36.795Z,0.86
2023-04-05T03:31:04.424Z,0.89
2023-04-05T03:33:32.117Z,0.91
2023-04-05T03:36:01.412Z,0.92
2023-04-05T03:38:29.329Z,0.94
2023-04-05T03:40:56.883Z,0.97
2023-04-05T03:43:24.555Z,0.98
2023-04-05T03:45:53.731Z,1.01
2023-04-05T03:48:21.722Z,1.00
2023-04-05T03:50:49.460Z,1.00
2023-04-05T03:53:18.956Z,0.99
2023-04-05T03:55:49.366Z,0.97
2023-04-05T03:58:17.644Z,0.94
2023-04-05T04:00:45.793Z,0.89
2023-04-05T04:03:15.157Z,0.84
2023-04-05T04:05:43.266Z,0.81
2023-04-05T04:08:11.381Z,0.78
2023-04-05T04:10:39.018Z,0.73
2023-04-05T04:13:07.022Z,0.68
2023-04-05T04:15:34.579Z,0.62
2023-04-05T04:18:02.235Z,0.56
2023-04-05T04:20:31.651Z,0.50
2023-04-05T04:22:59.901Z,0.44
2023-04-05T04:25:30.700Z,0.39
2023-04-05T04:27:58.861Z,0.34
2023-04-05T04:30:26.875Z,0.26
2023-04-05T04:32:55.264Z,0.24
2023-04-05T04:35:25.829Z,0.19
2023-04-05T04:37:57.891Z,0.13
2023-04-05T04:40:29.268Z,0.08
2023-04-05T04:42:58.654Z,0.04
2023-04-05T04:45:26.428Z,0.01
2023-04-05T04:47:54.791Z,-0.03
2023-04-05T04:50:22.726Z,-0.03
2023-04-05T04:52:50.382Z,-0.03
2023-04-05T04:55:25.522Z,-0.02
2023-04-05T04:57:53.703Z,-0.02
2023-04-05T05:00:22.128Z,-0.01
2023-04-05T05:02:49.876Z,-0.01
2023-04-05T05:05:17.581Z,0.00
2023-04-05T05:07:46.537Z,0.02
2023-04-05T05:10:16.178Z,0.33
2023-04-05T05:12:45.299Z,0.98
2023-04-05T05:15:13.531Z,1.40
2023-04-05T05:17:41.605Z,1.81
2023-04-05T05:20:11.224Z,2.09
2023-04-05T05:22:40.325Z,2.62
2023-04-05T05:25:09.949Z,3.31
2023-04-05T05:27:37.548Z,3.67
2023-04-05T05:30:07.800Z,3.89
2023-04-05T05:32:35.609Z,4.20
2023-04-05T05:35:03.240Z,4.67
2023-04-05T05:37:31.808Z,5.24
2023-04-05T05:40:00.164Z,5.54
2023-04-05T05:42:28.286Z,6.03
2023-04-05T05:44:55.843Z,6.90
2023-04-05T05:47:24.943Z,7.54
2023-04-05T05:49:52.951Z,7.92
2023-04-05T05:52:20.631Z,8.21
2023-04-05T05:54:48.280Z,8.50
2023-04-05T05:57:16.080Z,8.97
2023-04-05T05:59:43.912Z,9.19
2023-04-05T06:02:11.982Z,9.16
2023-04-05T06:04:41.825Z,8.55
2023-04-05T06:07:09.672Z,8.02
2023-04-05T06:09:37.486Z,7.49
2023-04-05T06:12:05.333Z,7.01
2023-04-05T06:14:32.987Z,6.60
2023-04-05T06:17:00.696Z,6.24
2023-04-05T06:19:29.406Z,5.93
2023-04-05T06:22:00.673Z,5.72
2023-04-05T06:24:31.887Z,5.51
2023-04-05T06:26:59.520Z,5.30
2023-04-05T06:29:27.201Z,5.15
2023-04-05T06:31:56.343Z,5.01
2023-04-05T06:34:24.100Z,4.91
2023-04-05T06:36:51.745Z,4.86
2023-04-05T06:39:21.243Z,4.78
2023-04-05T06:41:48.961Z,4.76
2023-04-05T06:44:16.591Z,4.74
2023-04-05T06:46:44.241Z,4.75
2023-04-05T06:49:12.141Z,4.76
2023-04-05T06:51:41.326Z,4.72
2023-04-05T06:54:08.994Z,4.75
2023-04-05T06:56:38.962Z,4.78
2023-04-05T06:59:06.623Z,4.83
2023-04-05T07:01:34.274Z,4.92
2023-04-05T07:04:01.970Z,5.03
2023-04-05T07:06:29.761Z,4.86
2023-04-05T07:08:57.340Z,4.67
2023-04-05T07:11:24.959Z,4.74
2023-04-05T07:13:54.044Z,4.65
2023-04-05T07:16:23.624Z,4.77
2023-04-05T07:18:51.855Z,4.94
2023-04-05T07:21:19.460Z,5.13
2023-04-05T07:23:47.073Z,5.28
2023-04-05T07:26:14.649Z,5.46
2023-04-05T07:28:42.216Z,5.69
2023-04-05T07:31:11.600Z,6.00
2023-04-05T07:33:39.262Z,6.28
2023-04-05T07:36:07.628Z,6.49
2023-04-05T07:38:35.204Z,6.54
2023-04-05T07:41:02.977Z,6.73
2023-04-05T07:43:30.554Z,6.86
2023-04-05T07:46:03.509Z,6.68
2023-04-05T07:48:32.746Z,6.59
2023-04-05T07:51:05.166Z,6.85
2023-04-05T07:53:32.753Z,7.05
2023-04-05T07:56:01.001Z,7.14
2023-04-05T07:58:30.514Z,7.18
2023-04-05T08:01:00.913Z,7.24
2023-04-05T08:03:28.676Z,7.29
2023-04-05T08:05:57.752Z,7.45
2023-04-05T08:08:25.969Z,7.27
2023-04-05T08:10:53.614Z,7.50
2023-04-05T08:13:21.273Z,7.77
2023-04-05T08:15:48.994Z,7.94
2023-04-05T08:18:16.593Z,8.14
2023-04-05T08:20:44.268Z,8.36
2023-04-05T08:23:13.285Z,8.27
2023-04-05T08:25:42.644Z,8.35
2023-04-05T08:28:10.444Z,8.57
2023-04-05T08:30:38.969Z,8.73
2023-04-05T08:33:07.296Z,8.85
2023-04-05T08:35:38.022Z,8.79
2023-04-05T08:38:05.775Z,8.97
2023-04-05T08:40:41.201Z,9.16
2023-04-05T08:43:12.265Z,9.16
2023-04-05T08:45:48.418Z,9.41
2023-04-05T08:48:16.469Z,9.41
2023-04-05T08:50:44.340Z,9.56
2023-04-05T08:53:13.276Z,9.73
2023-04-05T08:55:42.570Z,9.70
2023-04-05T08:58:14.627Z,9.94
2023-04-05T09:00:42.946Z,10.06
2023-04-05T09:03:16.332Z,9.91
2023-04-05T09:05:47.806Z,10.15
2023-04-05T09:08:15.589Z,9.80
2023-04-05T09:10:44.931Z,9.92
2023-04-05T09:13:12.525Z,10.17
2023-04-05T09:15:41.582Z,10.20
2023-04-05T09:18:19.073Z,10.26
2023-04-05T09:20:51.290Z,10.32
2023-04-05T09:23:18.981Z,10.62
2023-04-05T09:25:52.519Z,10.94
2023-04-05T09:28:20.130Z,11.00
2023-04-05T09:30:48.175Z,10.90
2023-04-05T09:33:19.695Z,10.97
2023-04-05T09:35:52.242Z,10.81
2023-04-05T09:38:20.010Z,10.53
2023-04-05T09:40:51.314Z,10.51
2023-04-05T09:43:37.557Z,10.50
2023-04-05T09:46:05.251Z,10.85
2023-04-05T09:48:47.308Z,10.69
2023-04-05T09:51:15.692Z,10.64
2023-04-05T09:53:58.523Z,10.20
2023-04-05T09:56:29.111Z,10.12
2023-04-05T09:59:01.235Z,10.01
2023-04-05T10:01:29.827Z,10.12
2023-04-05T10:03:59.131Z,10.51
2023-04-05T10:06:36.373Z,10.37
2023-04-05T10:09:04.980Z,9.94
2023-04-05T10:11:35.549Z,10.13
2023-04-05T10:14:04.885Z,9.98
2023-04-05T10:16:37.584Z,10.27
2023-04-05T10:19:06.990Z,10.75
2023-04-05T10:21:37.538Z,10.93
2023-04-05T10:24:14.312Z,10.98
2023-04-05T10:26:49.787Z,11.12
2023-04-05T10:29:26.122Z,11.21
2023-04-05T10:32:05.696Z,11.17
2023-04-05T10:34:44.144Z,11.22
2023-04-05T10:37:19.442Z,11.55
2023-04-05T10:39:48.342Z,11.94
2023-04-05T10:42:22.201Z,12.44
2023-04-05T10:44:53.118Z,12.92
2023-04-05T10:47:24.675Z,12.94
2023-04-05T10:49:54.810Z,13.21
2023-04-05T10:52:24.237Z,12.55
2023-04-05T10:54:57.238Z,12.11
2023-04-05T10:57:27.224Z,11.56
2023-04-05T10:59:55.500Z,11.35
2023-04-05T11:02:23.839Z,11.37
2023-04-05T11:04:56.239Z,11.35
2023-04-05T11:07:24.280Z,11.26
2023-04-05T11:09:54.807Z,11.00
2023-04-05T11:12:58.932Z,10.49
2023-04-05T11:15:32.946Z,10.38
2023-04-05T11:18:09.401Z,10.57
2023-04-05T11:20:51.749Z,10.54
2023-04-05T11:23:20.761Z,10.89
2023-04-05T11:25:53.339Z,11.35
2023-04-05T11:28:25.578Z,11.67
2023-04-05T11:30:57.161Z,11.32
2023-04-05T11:33:37.755Z,11.06
2023-04-05T11:36:06.464Z,11.28
2023-04-05T11:38:34.430Z,11.22
2023-04-05T11:41:13.586Z,11.15
2023-04-05T11:43:42.498Z,11.02
2023-04-05T11:46:12.390Z,10.87
2023-04-05T11:48:42.017Z,10.53
2023-04-05T11:51:11.542Z,10.85
2023-04-05T11:53:39.828Z,11.11
2023-04-05T11:56:10.223Z,10.90
2023-04-05T11:58:38.131Z,10.69
2023-04-05T12:01:07.519Z,10.97
2023-04-05T12:03:37.791Z,10.95
2023-04-05T12:06:07.718Z,10.90
2023-04-05T12:08:40.592Z,10.33
2023-04-05T12:11:09.852Z,10.48
2023-04-05T12:13:38.629Z,10.72
2023-04-05T12:16:07.991Z,11.14
2023-04-05T12:18:38.627Z,11.62
2023-04-05T12:21:08.907Z,12.47
2023-04-05T12:23:38.156Z,12.61
2023-04-05T12:26:08.727Z,12.33
2023-04-05T12:28:51.740Z,12.17
2023-04-05T12:31:19.731Z,11.91
2023-04-05T12:33:49.125Z,11.31
2023-04-05T12:36:16.891Z,11.28
2023-04-05T12:38:44.481Z,11.03
2023-04-05T12:41:12.172Z,10.86
2023-04-05T12:43:40.831Z,10.62
2023-04-05T12:46:11.643Z,10.54
2023-04-05T12:48:39.747Z,10.44
2023-04-05T12:51:17.115Z,10.34
2023-04-05T12:53:48.492Z,10.32
2023-04-05T12:56:16.985Z,10.24
2023-04-05T12:58:45.131Z,10.16
2023-04-05T13:01:12.925Z,10.12
2023-04-05T13:03:40.730Z,10.04
2023-04-05T13:06:10.507Z,10.35
2023-04-05T13:08:38.098Z,10.86
2023-04-05T13:11:06.095Z,11.02
2023-04-05T13:13:34.812Z,11.64
2023-04-05T13:16:02.499Z,12.11
2023-04-05T13:18:30.321Z,12.49
2023-04-05T13:20:57.949Z,12.61
2023-04-05T13:23:26.968Z,12.16
2023-04-05T13:25:54.537Z,11.66
2023-04-05T13:28:22.139Z,11.38
2023-04-05T13:30:50.406Z,11.18
2023-04-05T13:33:19.454Z,11.06
2023-04-05T13:35:47.349Z,11.14
2023-04-05T13:38:15.037Z,10.95
2023-04-05T13:40:44.341Z,11.20
2023-04-05T13:43:12.284Z,11.03
2023-04-05T13:45:40.726Z,10.66
2023-04-05T13:48:08.606Z,9.83
2023-04-05T13:50:36.393Z,10.17
2023-04-05T13:53:03.978Z,10.29
2023-04-05T13:55:31.539Z,10.36
2023-04-05T13:58:00.814Z,10.45
2023-04-05T14:00:28.521Z,10.71
2023-04-05T14:02:56.562Z,10.85
2023-04-05T14:05:24.300Z,10.90
2023-04-05T14:07:51.862Z,11.09
2023-04-05T14:10:21.450Z,11.22
2023-04-05T14:12:49.127Z,11.47
2023-04-05T14:15:18.182Z,11.65
2023-04-05T14:17:45.934Z,11.74
2023-04-05T14:20:13.608Z,12.09
2023-04-05T14:22:41.274Z,11.89
2023-04-05T14:25:09.691Z,11.85
2023-04-05T14:27:41.958Z,11.28
2023-04-05T14:30:11.391Z,10.99
2023-04-05T14:32:40.710Z,10.33
2023-04-05T14:35:09.809Z,10.17
2023-04-05T14:37:37.977Z,9.85
2023-04-05T14:40:06.603Z,9.78
2023-04-05T14:42:47.722Z,9.67
2023-04-05T14:45:17.488Z,9.96
2023-04-05T14:47:46.612Z,10.05
2023-04-05T14:50:14.416Z,10.30
2023-04-05T14:52:42.111Z,10.72
2023-04-05T14:55:12.364Z,11.02
2023-04-05T14:57:40.096Z,10.95
2023-04-05T15:00:09.132Z,11.24
2023-04-05T15:02:37.821Z,11.20
2023-04-05T15:05:08.080Z,11.18
2023-04-05T15:07:36.061Z,11.14
2023-04-05T15:10:03.858Z,11.15
2023-04-05T15:12:32.455Z,11.14
2023-04-05T15:15:00.274Z,11.17
2023-04-05T15:17:28.063Z,11.00
2023-04-05T15:19:55.813Z,11.02
2023-04-05T15:22:25.427Z,10.97
2023-04-05T15:24:53.177Z,10.84
2023-04-05T15:27:20.956Z,10.37
2023-04-05T15:29:48.645Z,10.19
2023-04-05T15:32:17.083Z,10.33
2023-04-05T15:34:44.927Z,10.47
2023-04-05T15:37:12.876Z,10.37
2023-04-05T15:39:41.952Z,10.31
2023-04-05T15:42:09.729Z,10.01
2023-04-05T15:44:37.370Z,9.89
2023-04-05T15:47:05.435Z,10.00
2023-04-05T15:49:33.146Z,10.07
2023-04-05T15:52:01.144Z,10.07
2023-04-05T15:54:28.851Z,10.10
2023-04-05T15:56:58.080Z,10.10
2023-04-05T15:59:25.775Z,9.89
2023-04-05T16:01:53.686Z,9.87
2023-04-05T16:04:21.752Z,9.81
2023-04-05T16:06:49.506Z,9.86
2023-04-05T16:09:17.218Z,9.83
2023-04-05T16:11:45.470Z,9.74
2023-04-05T16:14:14.719Z,9.61
2023-04-05T16:16:53.132Z,9.65
2023-04-05T16:19:21.822Z,9.52
2023-04-05T16:21:49.898Z,9.42
2023-04-05T16:24:17.706Z,9.29
2023-04-05T16:26:45.450Z,9.16
2023-04-05T16:29:14.474Z,8.98
2023-04-05T16:31:47.056Z,8.77
2023-04-05T16:34:14.927Z,8.75
2023-04-05T16:36:42.722Z,8.79
2023-04-05T16:39:10.397Z,8.77
2023-04-05T16:41:38.088Z,8.84
2023-04-05T16:44:05.781Z,8.89
2023-04-05T16:46:34.802Z,8.89
2023-04-05T16:49:03.104Z,9.04
2023-04-05T16:51:31.290Z,8.96
2023-04-05T16:53:58.982Z,8.83
2023-04-05T16:56:26.861Z,8.70
2023-04-05T16:58:55.166Z,8.48
2023-04-05T17:01:23.039Z,8.42
2023-04-05T17:03:52.228Z,8.32
2023-04-05T17:06:19.945Z,8.22
2023-04-05T17:08:47.615Z,8.17
2023-04-05T17:11:15.393Z,8.00
2023-04-05T17:13:45.029Z,7.88
2023-04-05T17:16:13.556Z,7.80
2023-04-05T17:18:41.323Z,7.65
2023-04-05T17:21:12.229Z,7.49
2023-04-05T17:23:40.045Z,7.44
2023-04-05T17:26:07.934Z,7.30
2023-04-05T17:28:35.757Z,7.20
2023-04-05T17:31:04.092Z,7.13
2023-04-05T17:33:32.859Z,7.02
2023-04-05T17:36:01.941Z,6.98
2023-04-05T17:38:31.322Z,6.90
2023-04-05T17:40:59.464Z,6.85
2023-04-05T17:43:27.383Z,6.74
2023-04-05T17:45:55.418Z,6.63
2023-04-05T17:48:23.240Z,6.56
2023-04-05T17:50:51.019Z,6.50
2023-04-05T17:53:18.860Z,6.38
2023-04-05T17:55:48.318Z,6.30
2023-04-05T17:58:16.105Z,6.25
2023-04-05T18:00:44.882Z,6.16
2023-04-05T18:03:13.410Z,6.09
2023-04-05T18:05:41.218Z,6.01
2023-04-05T18:08:08.945Z,5.93
2023-04-05T18:10:36.705Z,5.85
2023-04-05T18:13:05.978Z,5.77
2023-04-05T18:15:33.689Z,5.67
2023-04-05T18:18:01.593Z,5.59
2023-04-05T18:20:29.342Z,5.49
2023-04-05T18:22:57.153Z,5.43
2023-04-05T18:25:24.988Z,5.36
2023-04-05T18:27:52.653Z,5.34
2023-04-05T18:30:21.772Z,5.27
2023-04-05T18:32:49.449Z,5.20
2023-04-05T18:35:17.585Z,5.14
2023-04-05T18:37:45.256Z,5.05
2023-04-05T18:40:13.249Z,4.95
2023-04-05T18:42:40.871Z,4.79
2023-04-05T18:45:09.410Z,4.68
2023-04-05T18:47:38.544Z,4.57
2023-04-05T18:50:09.893Z,4.46
2023-04-05T18:52:37.769Z,4.39
2023-04-05T18:55:06.245Z,4.28
2023-04-05T18:57:33.893Z,4.22
2023-04-05T19:00:01.930Z,4.16
2023-04-05T19:02:30.926Z,4.09
2023-04-05T19:05:00.117Z,4.01
2023-04-05T19:07:27.847Z,3.94
2023-04-05T19:09:55.598Z,3.86
2023-04-05T19:12:23.627Z,3.81
2023-04-05T19:14:51.414Z,3.78
2023-04-05T19:17:19.233Z,3.72
2023-04-05T19:19:48.577Z,3.66
2023-04-05T19:22:17.629Z,3.60
2023-04-05T19:24:45.363Z,3.55
2023-04-05T19:27:13.044Z,3.49
2023-04-05T19:29:40.750Z,3.41
2023-04-05T19:32:09.018Z,3.36
2023-04-05T19:34:38.912Z,3.31
2023-04-05T19:37:07.238Z,3.26
2023-04-05T19:39:37.552Z,3.25
2023-04-05T19:42:06.113Z,3.22
2023-04-05T19:44:44.170Z,3.23
2023-04-05T19:47:11.907Z,3.21
2023-04-05T19:49:42.914Z,3.21
2023-04-05T19:52:13.930Z,3.19
2023-04-05T19:54:44.077Z,3.20
2023-04-05T19:57:17.734Z,3.19
2023-04-05T19:59:46.017Z,3.19
2023-04-05T20:02:30.338Z,3.20
2023-04-05T20:04:58.048Z,3.23
2023-04-05T20:07:26.493Z,3.23
2023-04-05T20:09:56.132Z,3.23
2023-04-05T20:12:23.813Z,3.21
2023-04-05T20:14:52.078Z,3.16
2023-04-05T20:17:19.934Z,3.12
2023-04-05T20:19:57.237Z,3.08
2023-04-05T20:22:25.472Z,3.04
2023-04-05T20:24:53.169Z,2.97
2023-04-05T20:27:22.172Z,2.94
2023-04-05T20:29:50.320Z,2.89
2023-04-05T20:32:18.308Z,2.88
2023-04-05T20:34:46.102Z,2.83
2023-04-05T20:37:13.813Z,2.85
2023-04-05T20:39:41.529Z,2.84
2023-04-05T20:42:11.187Z,2.84
2023-04-05T20:44:41.062Z,2.82
2023-04-05T20:47:08.788Z,2.81
2023-04-05T20:49:36.638Z,2.77
2023-04-05T20:52:07.520Z,2.73
2023-04-05T20:54:35.469Z,2.67
2023-04-05T20:57:03.353Z,2.59
2023-04-05T20:59:31.445Z,2.52
2023-04-05T21:02:00.633Z,2.42
2023-04-05T21:04:30.134Z,2.36
2023-04-05T21:06:58.129Z,2.29
2023-04-05T21:09:25.964Z,2.27
2023-04-05T21:11:53.639Z,2.21
2023-04-05T21:14:21.318Z,2.12
2023-04-05T21:16:49.122Z,2.06
2023-04-05T21:19:18.157Z,2.02
2023-04-05T21:21:45.957Z,2.03
2023-04-05T21:24:13.715Z,2.02
2023-04-05T21:26:41.556Z,1.99
2023-04-05T21:29:09.384Z,1.97
2023-04-05T21:31:37.355Z,1.94
2023-04-05T21:34:05.020Z,1.94
2023-04-05T21:36:34.046Z,1.94
2023-04-05T21:39:01.783Z,1.94
2023-04-05T21:41:29.778Z,1.93
2023-04-05T21:43:57.488Z,1.93
2023-04-05T21:46:25.174Z,1.92
2023-04-05T21:48:52.852Z,1.89
2023-04-05T21:51:20.978Z,1.86
2023-04-05T21:53:49.999Z,1.85
2023-04-05T21:56:18.929Z,1.84
2023-04-05T21:58:46.572Z,1.83
2023-04-05T22:01:14.632Z,1.84
2023-04-05T22:03:42.406Z,1.85
2023-04-05T22:06:10.102Z,1.86
2023-04-05T22:08:38.131Z,1.81
2023-04-05T22:11:07.419Z,1.80
2023-04-05T22:13:35.440Z,1.79
2023-04-05T22:16:03.193Z,1.76
2023-04-05T22:18:30.922Z,1.73
2023-04-05T22:20:58.619Z,1.70
2023-04-05T22:23:26.416Z,1.68
2023-04-05T22:25:54.119Z,1.68
2023-04-05T22:28:23.204Z,1.67
2023-04-05T22:30:50.934Z,1.64
2023-04-05T22:33:18.761Z,1.59
2023-04-05T22:35:46.495Z,1.56
2023-04-05T22:38:14.212Z,1.51
2023-04-05T22:40:42.076Z,1.46
2023-04-05T22:43:09.736Z,1.43
2023-04-05T22:45:38.869Z,1.39
2023-04-05T22:48:07.254Z,1.37
2023-04-05T22:50:35.004Z,1.36
2023-04-05T22:53:02.645Z,1.35
2023-04-05T22:55:30.601Z,1.34
2023-04-05T22:57:58.252Z,1.28
2023-04-05T23:00:26.024Z,1.22
2023-04-05T23:02:55.319Z,1.18
2023-04-05T23:05:22.990Z,1.11
2023-04-05T23:07:50.710Z,1.05
2023-04-05T23:10:18.707Z,1.02
2023-04-05T23:12:47.682Z,0.98
2023-04-05T23:15:15.739Z,0.95
2023-04-05T23:17:43.522Z,0.92
2023-04-05T23:20:12.961Z,0.90
2023-04-05T23:22:40.637Z,0.87
2023-04-05T23:25:09.566Z,0.81
2023-04-05T23:27:37.203Z,0.78
2023-04-05T23:30:06.076Z,0.77
2023-04-05T23:32:33.779Z,0.80
2023-04-05T23:35:01.445Z,0.82
2023-04-05T23:37:30.463Z,0.83
2023-04-05T23:39:58.175Z,0.89
2023-04-05T23:42:25.952Z,0.90
2023-04-05T23:44:53.609Z,0.88
2023-04-05T23:47:21.352Z,0.88
2023-04-05T23:49:49.148Z,0.90
2023-04-05T23:52:17.226Z,0.88
2023-04-05T23:54:46.617Z,0.88
2023-04-05T23:57:14.348Z,0.89
2023-04-05T23:59:42.095Z,0.89
